Time;durP1;ratioP1;P1;durP2;ratioP2;P2;SDS_P1;SDS_P2;PMS_P1;PMS_P2;Temp;Humidity;BMP_temperature;BMP_pressure;BME280_temperature;BME280_humidity;BME280_pressure;Samples;Min_cycle;Max_cycle;Signal;HPM_P1;HPM_P2
2021/06/28 00:00:30;;;;;;;;;;;;;;;19.83;79.25;96189.38;5039619;28;19921;-73
2021/06/28 00:02:56;;;;;;;;;;;;;;;19.79;79.25;96199.06;5021462;28;19927;-73
2021/06/28 00:05:21;;;;;;;;;;;;;;;19.84;78.10;96192.84;5035509;28;20019;-73
2021/06/28 00:07:49;;;;;;;;;;;;;;;19.86;77.97;96188.78;5017339;28;19921;-73
2021/06/28 00:10:16;;;;;;;;;;;;;;;19.83;76.79;96177.91;5035172;28;19921;-73
2021/06/28 00:12:43;;;;;;;;;;;;;;;19.86;75.76;96166.66;5016767;28;19952;-72
2021/06/28 00:15:10;;;;;;;;;;;;;;;19.87;74.83;96184.25;5034413;28;20004;-73
2021/06/28 00:17:37;;;;;;;;;;;;;;;19.94;74.70;96181.97;5034623;28;19928;-73
2021/06/28 00:20:05;;;;;;;;;;;;;;;19.85;75.46;96191.75;5034079;28;19925;-73
2021/06/28 00:22:31;;;;;;;;;;;;;;;19.79;77.15;96199.06;5034357;28;20411;-74
2021/06/28 00:24:56;;;;;;;;;;;;;;;19.46;79.35;96189.47;5034562;28;19921;-74
2021/06/28 00:27:23;;;;;;;;;;;;;;;19.26;80.53;96180.72;5034441;28;19933;-73
2021/06/28 00:29:49;;;;;;;;;;;;;;;19.22;79.58;96184.28;5034084;28;19983;-73
2021/06/28 00:32:16;;;;;;;;;;;;;;;19.04;80.80;96173.31;5034758;28;19921;-73
2021/06/28 00:34:43;;;;;;;;;;;;;;;19.05;80.07;96168.78;5034139;28;19921;-72
2021/06/28 00:37:09;;;;;;;;;;;;;;;19.04;78.19;96149.31;5034138;28;20010;-72
2021/06/28 00:39:34;;;;;;;;;;;;;;;19.04;79.77;96141.31;5033857;28;20392;-72
2021/06/28 00:41:59;;;;;;;;;;;;;;;19.02;80.25;96132.84;5034249;28;19921;-72
2021/06/28 00:44:27;;;;;;;;;;;;;;;19.05;79.77;96131.44;5036406;28;19920;-72
2021/06/28 00:46:53;;;;;;;;;;;;;;;19.09;79.93;96127.13;5049077;28;19975;-73
2021/06/28 00:49:18;;;;;;;;;;;;;;;19.08;80.31;96121.00;5034647;28;19932;-72
2021/06/28 00:51:46;;;;;;;;;;;;;;;19.10;78.13;96121.53;5034058;28;19982;-72
2021/06/28 00:54:11;;;;;;;;;;;;;;;19.20;77.71;96106.41;5035130;28;19920;-72
2021/06/28 00:56:37;;;;;;;;;;;;;;;19.27;77.56;96094.31;5015850;28;19932;-73
2021/06/28 00:59:03;;;;;;;;;;;;;;;19.27;76.91;96104.19;5015887;28;20021;-72
2021/06/28 01:01:28;;;;;;;;;;;;;;;19.34;76.87;96109.91;5015912;28;19925;-72
2021/06/28 01:03:54;;;;;;;;;;;;;;;19.30;76.98;96109.69;5033500;28;19921;-72
2021/06/28 01:06:22;;;;;;;;;;;;;;;19.30;78.23;96122.25;5033304;28;19979;-72
2021/06/28 01:08:48;;;;;;;;;;;;;;;19.27;78.54;96122.84;5034915;28;19921;-71
2021/06/28 01:11:14;;;;;;;;;;;;;;;19.25;78.61;96130.34;5036074;28;20277;-72
2021/06/28 01:13:42;;;;;;;;;;;;;;;19.17;79.42;96139.81;5035279;28;20395;-72
2021/06/28 01:16:08;;;;;;;;;;;;;;;19.15;78.69;96147.28;5037057;28;19975;-73
2021/06/28 01:18:34;;;;;;;;;;;;;;;19.13;79.61;96154.81;5034780;28;19920;-72
2021/06/28 01:21:00;;;;;;;;;;;;;;;19.07;80.56;96143.44;5033200;28;19921;-72
2021/06/28 01:23:28;;;;;;;;;;;;;;;19.00;80.47;96139.56;5033353;28;19925;-73
2021/06/28 01:25:55;;;;;;;;;;;;;;;19.07;80.13;96145.31;5033534;28;19920;-72
2021/06/28 01:28:20;;;;;;;;;;;;;;;19.00;80.47;96143.00;5033325;28;20020;-72
2021/06/28 01:30:46;;;;;;;;;;;;;;;19.01;79.98;96147.25;5033991;28;19960;-72
2021/06/28 01:33:12;;;;;;;;;;;;;;;19.04;79.71;96159.19;5033231;28;20388;-72
2021/06/28 01:35:38;;;;;;;;;;;;;;;18.97;80.04;96146.25;5033380;28;19928;-74
2021/06/28 01:38:03;;;;;;;;;;;;;;;18.92;80.47;96142.88;5093857;22;19924;-67
2021/06/28 01:40:30;;;;;;;;;;;;;;;18.94;80.94;96149.50;5084605;28;20403;-67
2021/06/28 01:42:55;;;;;;;;;;;;;;;18.90;80.60;96145.03;5085137;28;19921;-67
2021/06/28 01:45:22;;;;;;;;;;;;;;;19.11;80.19;96151.66;5077984;28;19935;-67
2021/06/28 01:47:48;;;;;;;;;;;;;;;19.11;80.54;96149.75;5075760;28;19985;-67
2021/06/28 01:50:15;;;;;;;;;;;;;;;19.05;80.05;96142.94;5075116;28;19920;-66
2021/06/28 01:52:41;;;;;;;;;;;;;;;19.04;81.07;96133.34;5073586;28;19921;-67
2021/06/28 01:55:07;;;;;;;;;;;;;;;18.96;80.49;96131.34;5056090;28;20081;-66
2021/06/28 01:57:36;;;;;;;;;;;;;;;18.91;81.38;96120.75;5073987;28;19943;-67
2021/06/28 02:00:04;;;;;;;;;;;;;;;18.84;81.89;96125.69;5073679;28;19920;-67
2021/06/28 02:02:29;;;;;;;;;;;;;;;18.81;82.36;96127.03;5074299;28;19920;-67
2021/06/28 02:04:56;;;;;;;;;;;;;;;18.79;82.36;96125.75;5056009;28;19927;-67
2021/06/28 02:07:24;;;;;;;;;;;;;;;18.79;82.22;96133.75;5090082;28;19931;-66
2021/06/28 02:09:49;;;;;;;;;;;;;;;18.74;82.26;96131.16;5076805;28;20335;-67
2021/06/28 02:12:15;;;;;;;;;;;;;;;18.70;83.15;96124.81;5073167;28;19920;-67
2021/06/28 02:14:42;;;;;;;;;;;;;;;18.67;83.94;96114.69;5074043;28;19935;-67
2021/06/28 02:17:07;;;;;;;;;;;;;;;18.66;83.64;96118.44;5073841;28;19924;-67
2021/06/28 02:19:32;;;;;;;;;;;;;;;18.65;84.15;96116.88;5074023;28;19939;-67
2021/06/28 02:21:58;;;;;;;;;;;;;;;18.70;83.65;96114.16;5073522;28;20030;-67
2021/06/28 02:24:24;;;;;;;;;;;;;;;18.72;83.95;96111.97;5073693;28;19920;-68
2021/06/28 02:26:50;;;;;;;;;;;;;;;18.72;83.95;96111.97;5055312;28;19920;-66
2021/06/28 02:29:17;;;;;;;;;;;;;;;18.67;84.12;96106.69;5055490;28;20000;-68
2021/06/28 02:31:44;;;;;;;;;;;;;;;18.68;84.09;96105.66;5073681;28;19927;-67
2021/06/28 02:34:10;;;;;;;;;;;;;;;18.67;84.24;96107.50;5073971;28;19924;-67
2021/06/28 02:36:36;;;;;;;;;;;;;;;18.71;83.82;96110.41;5073371;28;19920;-67
2021/06/28 02:39:04;;;;;;;;;;;;;;;18.75;83.66;96114.88;5074574;28;20262;-67
2021/06/28 02:41:29;;;;;;;;;;;;;;;18.68;83.49;96116.31;5074333;28;19920;-67
2021/06/28 02:43:55;;;;;;;;;;;;;;;18.75;84.10;96106.88;5056351;28;19920;-67
2021/06/28 02:46:21;;;;;;;;;;;;;;;18.72;83.46;96111.97;5074022;28;20329;-66
2021/06/28 02:48:47;;;;;;;;;;;;;;;18.68;83.82;96105.66;5073354;28;19920;-66
2021/06/28 02:51:14;;;;;;;;;;;;;;;18.63;84.44;96103.84;5073784;28;19921;-67
2021/06/28 02:53:42;;;;;;;;;;;;;;;18.67;83.97;96104.81;5055564;28;19927;-67
2021/06/28 02:56:14;;;;;;;;;;;;;;;18.97;82.52;96110.81;5073540;28;20419;-67
2021/06/28 02:58:39;;;;;;;;;;;;;;;18.86;83.02;96107.50;5073940;28;19921;-67
2021/06/28 03:01:05;;;;;;;;;;;;;;;18.73;83.23;96102.94;5055440;28;19921;-67
2021/06/28 03:03:30;;;;;;;;;;;;;;;18.69;83.90;96099.25;5073562;28;19920;-67
2021/06/28 03:05:57;;;;;;;;;;;;;;;18.65;84.25;96091.00;5072884;28;19920;-67
2021/06/28 03:08:23;;;;;;;;;;;;;;;18.66;84.34;96091.81;5072786;28;20010;-65
2021/06/28 03:10:48;;;;;;;;;;;;;;;18.58;83.51;96085.28;5072866;28;19955;-66
2021/06/28 03:13:13;;;;;;;;;;;;;;;18.52;83.88;96091.75;5073175;28;19924;-67
2021/06/28 03:15:41;;;;;;;;;;;;;;;18.49;84.13;96103.75;5072785;28;20021;-67
2021/06/28 03:18:06;;;;;;;;;;;;;;;18.49;84.13;96109.09;5073184;28;19939;-67
2021/06/28 03:20:32;;;;;;;;;;;;;;;18.54;84.09;96103.69;5072503;28;19920;-67
2021/06/28 03:23:01;;;;;;;;;;;;;;;18.52;84.03;96099.75;5073525;28;19984;-67
2021/06/28 03:25:26;;;;;;;;;;;;;;;18.53;84.06;96107.44;5072770;28;20302;-67
2021/06/28 03:27:52;;;;;;;;;;;;;;;18.46;84.46;96107.03;5073414;28;20015;-67
2021/06/28 03:30:18;;;;;;;;;;;;;;;18.47;84.79;96108.59;5073431;28;19921;-67
2021/06/28 03:32:44;;;;;;;;;;;;;;;18.55;84.05;96099.94;5073164;28;19920;-67
2021/06/28 03:35:10;;;;;;;;;;;;;;;18.43;84.65;96102.25;5076816;28;19928;-67
2021/06/28 03:37:39;;;;;;;;;;;;;;;18.41;84.74;96109.75;5076831;28;19928;-67
2021/06/28 03:40:10;;;;;;;;;;;;;;;18.41;85.02;96117.75;5058367;28;19978;-67
2021/06/28 03:42:37;;;;;;;;;;;;;;;18.44;84.65;96119.81;5077045;28;20277;-68
2021/06/28 03:45:03;;;;;;;;;;;;;;;18.44;84.89;96111.03;5076844;28;19924;-67
2021/06/28 03:47:31;;;;;;;;;;;;;;;18.41;85.30;96120.41;5076943;28;19920;-67
2021/06/28 03:49:57;;;;;;;;;;;;;;;18.40;85.25;96118.00;5058760;28;19920;-67
2021/06/28 03:52:22;;;;;;;;;;;;;;;18.49;84.74;96119.75;5088061;28;19924;-66
2021/06/28 03:54:48;;;;;;;;;;;;;;;18.35;85.51;96119.69;5086350;28;19930;-67
2021/06/28 03:57:15;;;;;;;;;;;;;;;18.39;85.31;96119.09;5077802;28;19920;-67
2021/06/28 03:59:42;;;;;;;;;;;;;;;18.21;85.99;96124.13;5076342;28;19920;-67
2021/06/28 04:02:07;;;;;;;;;;;;;;;18.09;86.25;96116.56;5076548;28;19927;-67
2021/06/28 04:04:33;;;;;;;;;;;;;;;17.99;86.98;96113.22;5058112;28;19920;-66
2021/06/28 04:06:58;;;;;;;;;;;;;;;17.98;87.20;96117.75;5075932;28;19942;-67
2021/06/28 04:09:27;;;;;;;;;;;;;;;17.91;87.47;96114.63;5075576;28;20421;-67
2021/06/28 04:11:55;;;;;;;;;;;;;;;17.88;87.65;96120.53;5058151;28;20406;-67
2021/06/28 04:14:22;;;;;;;;;;;;;;;17.79;88.30;96119.56;5076479;28;19927;-69
2021/06/28 04:16:47;;;;;;;;;;;;;;;17.85;88.48;96115.78;5058185;28;19920;-67
2021/06/28 04:19:15;;;;;;;;;;;;;;;17.81;88.35;96117.41;5076440;28;19926;-68
2021/06/28 04:21:40;;;;;;;;;;;;;;;17.88;88.36;96120.53;5076955;28;19920;-67
2021/06/28 04:24:08;;;;;;;;;;;;;;;17.85;88.08;96121.09;5058822;28;20383;-67
2021/06/28 04:26:36;;;;;;;;;;;;;;;17.83;88.32;96117.94;5076714;28;19920;-67
2021/06/28 04:29:02;;;;;;;;;;;;;;;18.02;87.89;96120.63;5076038;28;19982;-67
2021/06/28 04:31:29;;;;;;;;;;;;;;;17.96;87.47;96114.56;5076932;28;19924;-67
2021/06/28 04:33:57;;;;;;;;;;;;;;;17.93;88.11;96109.84;5076884;28;19924;-67
2021/06/28 04:36:24;;;;;;;;;;;;;;;17.93;87.86;96112.50;5058507;28;19924;-68
2021/06/28 04:38:50;;;;;;;;;;;;;;;17.90;88.03;96110.38;5075892;28;19926;-67
2021/06/28 04:41:15;;;;;;;;;;;;;;;17.89;88.36;96119.44;5076785;28;20018;-67
2021/06/28 04:43:44;;;;;;;;;;;;;;;17.91;88.56;96114.63;5076072;28;19920;-67
2021/06/28 04:46:09;;;;;;;;;;;;;;;17.89;88.43;96119.44;5075830;28;19951;-67
2021/06/28 04:48:36;;;;;;;;;;;;;;;17.99;87.83;96116.69;5076897;28;19920;-67
2021/06/28 04:51:01;;;;;;;;;;;;;;;17.97;87.82;96118.03;5079348;28;19921;-67
2021/06/28 04:53:29;;;;;;;;;;;;;;;18.02;87.80;96121.41;5080430;28;19920;-68
2021/06/28 04:55:54;;;;;;;;;;;;;;;18.03;87.20;96116.91;5084876;28;19943;-68
2021/06/28 04:58:20;;;;;;;;;;;;;;;18.09;86.99;96116.56;5064118;28;20383;-68
2021/06/28 05:00:45;;;;;;;;;;;;;;;18.18;86.67;96118.56;5078118;28;19920;-68
2021/06/28 05:03:10;;;;;;;;;;;;;;;18.27;86.38;96122.19;5076963;28;20019;-68
2021/06/28 05:05:37;;;;;;;;;;;;;;;18.58;85.30;96123.34;5076453;28;19927;-66
2021/06/28 05:08:03;;;;;;;;;;;;;;;19.30;82.06;96127.59;5075863;28;19959;-67
2021/06/28 05:10:31;;;;;;;;;;;;;;;19.88;79.65;96114.53;5057283;28;20411;-67
2021/06/28 05:12:56;;;;;;;;;;;;;;;20.70;76.68;96116.28;5075240;28;19920;-66
2021/06/28 05:15:21;;;;;;;;;;;;;;;21.19;73.34;96111.91;5058055;28;19991;-67
2021/06/28 05:17:47;;;;;;;;;;;;;;;21.44;71.28;96109.72;5075958;28;20443;-68
2021/06/28 05:20:13;;;;;;;;;;;;;;;21.98;69.57;96107.75;5075534;28;19939;-66
2021/06/28 05:22:40;;;;;;;;;;;;;;;22.53;67.88;96115.28;5075237;28;19927;-67
2021/06/28 05:25:07;;;;;;;;;;;;;;;22.53;66.49;96117.94;5075932;28;19926;-67
2021/06/28 05:27:33;;;;;;;;;;;;;;;22.93;65.65;96117.84;5075132;28;20022;-67
2021/06/28 05:29:59;;;;;;;;;;;;;;;23.60;63.23;96114.53;5057365;28;19970;-67
2021/06/28 05:32:25;;;;;;;;;;;;;;;23.55;62.65;96123.56;5075360;28;20346;-67
2021/06/28 05:34:51;;;;;;;;;;;;;;;23.63;62.66;96113.16;5075389;28;20395;-67
2021/06/28 05:37:17;;;;;;;;;;;;;;;23.68;62.55;96108.38;5079680;28;19946;-67
2021/06/28 05:39:44;;;;;;;;;;;;;;;23.89;61.31;96110.34;5088117;28;19925;-67
2021/06/28 05:42:10;;;;;;;;;;;;;;;23.85;60.35;96112.13;5077538;28;19920;-67
2021/06/28 05:44:35;;;;;;;;;;;;;;;24.30;59.61;96105.06;5075781;28;19921;-67
2021/06/28 05:47:03;;;;;;;;;;;;;;;24.81;58.43;96108.53;5074638;28;20023;-66
2021/06/28 05:49:31;;;;;;;;;;;;;;;24.80;56.41;96106.13;5076274;28;19920;-67
2021/06/28 05:51:58;;;;;;;;;;;;;;;24.77;57.13;96107.59;5057393;28;19952;-67
2021/06/28 05:54:23;;;;;;;;;;;;;;;24.69;56.42;96111.13;5075255;28;19927;-69
2021/06/28 05:56:50;;;;;;;;;;;;;;;24.97;56.55;96110.56;5075365;28;19920;-66
2021/06/28 05:59:17;;;;;;;;;;;;;;;25.41;55.63;96102.91;5075436;28;19920;-67
2021/06/28 06:01:43;;;;;;;;;;;;;;;25.31;54.25;96104.91;5075719;28;20458;-67
2021/06/28 06:04:13;;;;;;;;;;;;;;;25.68;54.05;96101.50;5075012;28;20019;-67
2021/06/28 06:06:39;;;;;;;;;;;;;;;25.96;52.83;96098.97;5074967;28;19920;-67
2021/06/28 06:09:04;;;;;;;;;;;;;;;26.12;51.76;96095.25;5074011;28;20019;-67
2021/06/28 06:11:33;;;;;;;;;;;;;;;25.96;51.73;96090.88;5074340;28;19920;-68
2021/06/28 06:13:59;;;;;;;;;;;;;;;25.89;52.42;96103.00;5075515;28;19931;-68
2021/06/28 06:16:25;;;;;;;;;;;;;;;25.46;52.70;96105.41;5074073;28;19963;-67
2021/06/28 06:18:50;;;;;;;;;;;;;;;26.35;50.38;96106.34;5073630;28;19957;-68
2021/06/28 06:21:16;;;;;;;;;;;;;;;26.73;50.16;96101.66;5075123;28;19921;-67
2021/06/28 06:23:41;;;;;;;;;;;;;;;26.60;49.74;96106.31;5056774;28;19928;-67
2021/06/28 06:26:07;;;;;;;;;;;;;;;26.52;50.46;96107.22;5074306;28;20303;-67
2021/06/28 06:28:32;;;;;;;;;;;;;;;26.38;50.67;96102.97;5074162;28;20303;-67
2021/06/28 06:30:59;;;;;;;;;;;;;;;26.53;50.14;96100.69;5074287;28;20106;-67
2021/06/28 06:33:24;;;;;;;;;;;;;;;26.33;51.07;96095.09;5074411;28;20034;-66
2021/06/28 06:35:50;;;;;;;;;;;;;;;26.55;51.05;96106.56;5073672;28;19921;-68
2021/06/28 06:38:19;;;;;;;;;;;;;;;26.54;49.86;96102.28;5073667;28;19988;-68
2021/06/28 06:40:48;;;;;;;;;;;;;;;26.79;49.55;96095.69;5075028;28;19928;-68
2021/06/28 06:43:14;;;;;;;;;;;;;;;27.29;48.31;96099.78;5074898;28;19920;-68
2021/06/28 06:45:39;;;;;;;;;;;;;;;27.32;48.15;96101.00;5074283;28;19973;-68
2021/06/28 06:48:06;;;;;;;;;;;;;;;26.99;48.54;96102.03;5074866;28;19921;-67
2021/06/28 06:50:32;;;;;;;;;;;;;;;27.57;48.27;96101.66;5075552;28;19920;-67
2021/06/28 06:52:58;;;;;;;;;;;;;;;27.31;47.71;96089.41;5077666;28;19920;-68
2021/06/28 06:55:25;;;;;;;;;;;;;;;27.76;47.58;96093.63;5075256;28;19997;-69
2021/06/28 06:57:50;;;;;;;;;;;;;;;27.91;46.90;96098.25;5074724;28;20019;-68
2021/06/28 07:00:17;;;;;;;;;;;;;;;28.38;46.36;96089.31;5056126;28;20387;-68
2021/06/28 07:02:43;;;;;;;;;;;;;;;27.50;46.88;96101.44;5074896;28;19924;-68
2021/06/28 07:05:11;;;;;;;;;;;;;;;27.47;46.31;96097.53;5075574;28;19921;-69
2021/06/28 07:07:37;;;;;;;;;;;;;;;26.86;47.98;96101.28;5075594;28;20368;-68
2021/06/28 07:10:03;;;;;;;;;;;;;;;27.05;48.18;96097.16;5078333;28;19939;-68
2021/06/28 07:12:28;;;;;;;;;;;;;;;27.80;46.81;96099.16;5078163;28;19928;-68
2021/06/28 07:14:56;;;;;;;;;;;;;;;27.54;47.77;96105.81;5078161;28;20379;-67
2021/06/28 07:17:21;;;;;;;;;;;;;;;27.56;46.88;96106.28;5078011;28;19928;-67
2021/06/28 07:19:47;;;;;;;;;;;;;;;28.12;45.38;96108.00;5077604;28;19921;-68
2021/06/28 07:22:14;;;;;;;;;;;;;;;28.45;45.09;96103.00;5077699;28;20038;-68
2021/06/28 07:24:39;;;;;;;;;;;;;;;29.35;43.70;96094.75;5091430;28;19924;-67
2021/06/28 07:27:04;;;;;;;;;;;;;;;28.31;45.31;96097.25;5081840;28;20442;-67
2021/06/28 07:29:30;;;;;;;;;;;;;;;29.14;44.71;96099.78;5079042;28;19921;-67
2021/06/28 07:31:59;;;;;;;;;;;;;;;29.15;43.71;96098.63;5059911;28;19920;-67
2021/06/28 07:34:24;;;;;;;;;;;;;;;28.80;44.72;96096.78;5077467;28;19920;-67
2021/06/28 07:36:50;;;;;;;;;;;;;;;29.27;42.67;96098.47;5097349;22;20341;-71
2021/06/28 07:39:17;;;;;;;;;;;;;;;29.30;43.00;96097.75;5075336;28;19921;-73
2021/06/28 07:41:42;;;;;;;;;;;;;;;29.52;43.50;96090.78;5076431;28;20336;-73
2021/06/28 07:44:08;;;;;;;;;;;;;;;29.32;42.04;96098.16;5075718;28;19943;-73
2021/06/28 07:46:34;;;;;;;;;;;;;;;29.27;41.80;96098.47;5058190;28;20014;-73
2021/06/28 07:48:59;;;;;;;;;;;;;;;29.42;42.14;96094.88;5057417;28;20027;-73
2021/06/28 07:51:25;;;;;;;;;;;;;;;29.30;42.70;96103.16;5075656;28;19952;-72
2021/06/28 07:53:50;;;;;;;;;;;;;;;29.70;42.94;96101.94;5075714;28;19936;-73
2021/06/28 07:56:18;;;;;;;;;;;;;;;29.55;43.00;96098.22;5057680;28;19921;-73
2021/06/28 07:58:44;;;;;;;;;;;;;;;29.68;42.57;96101.53;5075953;28;19920;-73
2021/06/28 08:01:09;;;;;;;;;;;;;;;29.25;43.27;96106.16;5075909;28;19926;-75
2021/06/28 08:03:35;;;;;;;;;;;;;;;28.56;44.60;96105.16;5076073;28;19924;-73
2021/06/28 08:06:00;;;;;;;;;;;;;;;29.18;43.39;96106.03;5076277;28;19921;-72
2021/06/28 08:08:26;;;;;;;;;;;;;;;29.22;43.93;96096.03;5075931;28;20444;-73
2021/06/28 08:10:51;;;;;;;;;;;;;;;29.03;44.33;96100.34;5076879;28;19921;-73
2021/06/28 08:13:18;;;;;;;;;;;;;;;29.03;43.88;96094.16;5058357;28;19928;-73
2021/06/28 08:15:44;;;;;;;;;;;;;;;29.02;44.03;96093.38;5057985;28;19920;-74
2021/06/28 08:18:12;;;;;;;;;;;;;;;29.01;43.91;96097.22;5058950;28;19927;-73
2021/06/28 08:20:37;;;;;;;;;;;;;;;28.85;44.67;96091.06;5085603;28;19921;-72
2021/06/28 08:23:03;;;;;;;;;;;;;;;29.28;43.47;96098.13;5088846;28;19932;-73
2021/06/28 08:25:28;;;;;;;;;;;;;;;30.58;40.57;96094.41;5087970;28;19920;-73
2021/06/28 08:27:55;;;;;;;;;;;;;;;30.33;41.41;96085.13;5089432;28;19949;-72
2021/06/28 08:30:22;;;;;;;;;;;;;;;30.86;40.78;96081.56;5087455;28;19931;-71
2021/06/28 08:32:48;;;;;;;;;;;;;;;30.50;40.80;96087.28;5087970;28;19921;-72
2021/06/28 08:35:13;;;;;;;;;;;;;;;30.95;40.42;96079.38;5075069;28;19974;-72
2021/06/28 08:37:39;;;;;;;;;;;;;;;31.26;38.64;96084.38;5056878;28;20023;-73
2021/06/28 08:40:06;;;;;;;;;;;;;;;30.59;39.53;96079.66;5075534;28;19924;-72
2021/06/28 08:42:33;;;;;;;;;;;;;;;30.60;39.85;96080.44;5076870;28;19920;-73
2021/06/28 08:45:01;;;;;;;;;;;;;;;30.33;40.61;96071.56;5075057;28;19943;-74
2021/06/28 08:47:31;;;;;;;;;;;;;;;30.21;40.26;96067.13;5074939;28;19927;-74
2021/06/28 08:49:58;;;;;;;;;;;;;;;30.09;40.10;96066.56;5074542;28;19951;-73
2021/06/28 08:52:26;;;;;;;;;;;;;;;30.32;39.37;96072.72;5074143;28;20022;-73
2021/06/28 08:54:51;;;;;;;;;;;;;;;30.64;38.91;96069.66;5074180;28;19974;-74
2021/06/28 08:57:17;;;;;;;;;;;;;;;31.13;38.01;96074.13;5056008;28;19932;-73
2021/06/28 08:59:43;;;;;;;;;;;;;;;30.89;39.05;96078.09;5074170;28;19970;-72
2021/06/28 09:02:08;;;;;;;;;;;;;;;31.22;38.11;96071.88;5074434;28;20257;-73
2021/06/28 09:04:35;;;;;;;;;;;;;;;30.46;39.19;96072.09;5075200;28;20082;-73
2021/06/28 09:07:16;;;;;;;;;;;;;;;30.82;38.68;96062.50;5074099;28;19921;-73
2021/06/28 09:09:44;;;;;;;;;;;;;;;31.08;36.30;96067.84;5074929;28;19956;-72
2021/06/28 09:12:12;;;;;;;;;;;;;;;31.04;37.18;96058.09;5076788;28;19920;-75
2021/06/28 09:14:44;;;;;;;;;;;;;;;31.62;36.48;96069.19;5076924;28;19921;-74
2021/06/28 09:17:24;;;;;;;;;;;;;;;30.63;36.17;96062.66;5056270;28;19925;-74
2021/06/28 09:20:09;;;;;;;;;;;;;;;30.38;37.43;96062.31;5073345;28;20263;-73
2021/06/28 09:22:36;;;;;;;;;;;;;;;30.61;37.77;96059.50;5055842;28;20371;-74
2021/06/28 09:25:07;;;;;;;;;;;;;;;30.35;38.04;96057.63;5073696;28;19927;-73
2021/06/28 09:27:40;;;;;;;;;;;;;;;30.95;36.73;96063.84;5073227;28;19965;-72
2021/06/28 09:30:13;;;;;;;;;;;;;;;30.40;37.03;96063.50;5055441;28;19971;-73
2021/06/28 09:32:49;;;;;;;;;;;;;;;31.20;36.87;96066.81;5055141;28;19924;-73
2021/06/28 09:35:26;;;;;;;;;;;;;;;31.43;36.32;96061.25;5073326;28;19974;-74
2021/06/28 09:37:52;;;;;;;;;;;;;;;31.68;36.42;96061.44;5055169;28;19921;-74
2021/06/28 09:40:22;;;;;;;;;;;;;;;30.86;37.09;96060.63;5073144;28;20007;-72
2021/06/28 09:42:48;;;;;;;;;;;;;;;30.54;36.84;96060.22;5073138;28;20295;-73
2021/06/28 09:45:15;;;;;;;;;;;;;;;29.27;38.84;96060.53;5073133;28;20379;-72
2021/06/28 09:47:45;;;;;;;;;;;;;;;28.82;39.43;96048.47;5073093;28;20406;-74
2021/06/28 09:50:12;;;;;;;;;;;;;;;29.32;39.71;96049.41;5073031;28;20353;-72
2021/06/28 09:52:40;;;;;;;;;;;;;;;29.36;39.48;96052.97;5073446;28;20330;-73
2021/06/28 09:55:18;;;;;;;;;;;;;;;29.18;39.81;96049.94;5055239;28;20314;-73
2021/06/28 09:58:04;;;;;;;;;;;;;;;29.55;39.38;96049.44;5072732;28;19924;-73
2021/06/28 10:00:30;;;;;;;;;;;;;;;29.74;38.47;96040.44;5072535;28;19993;-73
2021/06/28 10:02:56;;;;;;;;;;;;;;;29.59;38.14;96050.28;5054774;28;19929;-73
2021/06/28 10:05:36;;;;;;;;;;;;;;;29.16;39.40;96056.84;5072585;28;20341;-73
2021/06/28 10:08:12;;;;;;;;;;;;;;;28.99;39.59;96053.44;5072368;28;19920;-74
2021/06/28 10:10:40;;;;;;;;;;;;;;;28.94;39.17;96056.44;5054207;28;19932;-73
2021/06/28 10:13:07;;;;;;;;;;;;;;;28.45;40.44;96059.69;5073194;28;20161;-73
2021/06/28 10:15:35;;;;;;;;;;;;;;;28.76;39.86;96058.00;5072915;28;19924;-73
2021/06/28 10:18:01;;;;;;;;;;;;;;;28.95;39.91;96065.34;5072896;28;19996;-73
2021/06/28 10:20:27;;;;;;;;;;;;;;;29.10;39.95;96059.06;5072617;28;20402;-74
2021/06/28 10:22:54;;;;;;;;;;;;;;;28.73;38.89;96059.50;5073563;28;19928;-74
2021/06/28 10:25:22;;;;;;;;;;;;;;;28.63;38.29;96054.69;5073169;28;19982;-74
2021/06/28 10:27:47;;;;;;;;;;;;;;;28.73;38.51;96053.31;5072992;28;20082;-73
2021/06/28 10:30:14;;;;;;;;;;;;;;;28.70;38.57;96052.09;5072923;28;20300;-73
2021/06/28 10:32:40;;;;;;;;;;;;;;;28.83;38.88;96055.44;5073008;28;19921;-74
2021/06/28 10:35:07;;;;;;;;;;;;;;;28.76;38.18;96047.97;5073360;28;19985;-73
2021/06/28 10:37:33;;;;;;;;;;;;;;;28.80;38.02;96056.16;5072844;28;20396;-73
2021/06/28 10:39:59;;;;;;;;;;;;;;;28.90;38.33;96039.34;5054562;28;19920;-73
2021/06/28 10:42:30;;;;;;;;;;;;;;;29.08;38.10;96047.03;5072880;28;19921;-73
2021/06/28 10:44:56;;;;;;;;;;;;;;;29.11;38.36;96040.88;5054714;28;19973;-72
2021/06/28 10:47:21;;;;;;;;;;;;;;;29.26;37.00;96031.88;5054387;28;19921;-73
2021/06/28 10:49:49;;;;;;;;;;;;;;;29.42;36.95;96043.38;5072709;28;19920;-73
2021/06/28 10:52:44;;;;;;;;;;;;;;;29.35;36.24;96035.16;5073039;28;19920;-74
2021/06/28 10:55:27;;;;;;;;;;;;;;;28.89;36.87;96032.34;5072491;28;19960;-74
2021/06/28 10:57:54;;;;;;;;;;;;;;;29.24;36.17;96031.47;5054358;28;19912;-74
2021/06/28 11:00:46;;;;;;;;;;;;;;;29.40;36.38;96026.72;5054663;28;20371;-73
2021/06/28 11:03:29;;;;;;;;;;;;;;;29.42;35.72;96023.63;5056827;28;19936;-74
2021/06/28 11:06:14;;;;;;;;;;;;;;;29.35;36.43;96016.19;5073668;28;19947;-74
2021/06/28 11:08:42;;;;;;;;;;;;;;;29.70;35.59;96015.19;5076660;28;19975;-73
2021/06/28 11:11:10;;;;;;;;;;;;;;;29.72;35.20;96007.50;5072339;28;20387;-73
2021/06/28 11:13:53;;;;;;;;;;;;;;;29.89;34.93;96004.28;5076801;28;19931;-73
2021/06/28 11:16:29;;;;;;;;;;;;;;;29.57;35.23;96008.44;5059015;28;20340;-73
2021/06/28 11:18:54;;;;;;;;;;;;;;;29.83;35.15;96005.72;5078606;28;20371;-73
2021/06/28 11:21:35;;;;;;;;;;;;;;;29.87;35.12;96001.16;5056710;28;19921;-73
2021/06/28 11:24:00;;;;;;;;;;;;;;;29.62;34.94;95997.28;5056326;28;19970;-72
2021/06/28 11:26:31;;;;;;;;;;;;;;;29.36;35.04;95998.78;5078234;28;19920;-73
2021/06/28 11:28:58;;;;;;;;;;;;;;;29.77;34.70;95990.94;5078197;28;19936;-74
2021/06/28 11:31:29;;;;;;;;;;;;;;;29.98;34.73;95990.47;5074168;28;19920;-74
2021/06/28 11:33:56;;;;;;;;;;;;;;;29.86;35.07;95988.72;5072760;28;19935;-73
2021/06/28 11:36:35;;;;;;;;;;;;;;;29.75;34.23;95976.94;5071618;28;19943;-73
2021/06/28 11:39:03;;;;;;;;;;;;;;;29.57;34.50;95984.03;5072033;28;19920;-74
2021/06/28 11:41:30;;;;;;;;;;;;;;;29.72;35.49;95974.97;5071644;28;19920;-73
2021/06/28 11:43:56;;;;;;;;;;;;;;;29.66;33.27;95971.00;5071721;28;20442;-73
2021/06/28 11:46:25;;;;;;;;;;;;;;;29.52;34.55;95977.75;5072276;28;19920;-73
2021/06/28 11:48:56;;;;;;;;;;;;;;;29.67;34.22;95972.56;5072002;28;19924;-74
2021/06/28 11:51:25;;;;;;;;;;;;;;;29.89;33.65;95966.31;5072062;28;19928;-72
2021/06/28 11:53:51;;;;;;;;;;;;;;;30.06;34.02;95965.75;5072520;28;19920;-72
2021/06/28 11:56:31;;;;;;;;;;;;;;;30.22;34.27;95960.19;5075124;28;20437;-72
2021/06/28 11:59:01;;;;;;;;;;;;;;;29.87;34.88;95962.41;5057168;28;19924;-73
2021/06/28 12:01:30;;;;;;;;;;;;;;;30.06;34.87;95965.75;5075209;28;19925;-73
2021/06/28 12:03:56;;;;;;;;;;;;;;;30.30;33.59;95959.13;5075295;28;19920;-73
2021/06/28 12:06:25;;;;;;;;;;;;;;;30.31;33.71;95959.91;5075438;28;19938;-74
2021/06/28 12:09:01;;;;;;;;;;;;;;;30.20;34.16;95953.56;5075073;28;19928;-73
2021/06/28 12:11:27;;;;;;;;;;;;;;;30.00;34.67;95956.38;5075036;28;19977;-72
2021/06/28 12:13:52;;;;;;;;;;;;;;;29.83;35.22;95962.34;5075035;28;19921;-72
2021/06/28 12:16:19;;;;;;;;;;;;;;;30.29;34.47;95959.47;5074979;28;20022;-72
2021/06/28 12:18:58;;;;;;;;;;;;;;;30.18;34.58;95953.91;5057003;28;19946;-73
2021/06/28 12:21:31;;;;;;;;;;;;;;;30.43;34.01;95956.94;5075361;28;19920;-73
2021/06/28 12:24:06;;;;;;;;;;;;;;;30.62;33.64;95950.56;5056798;28;19986;-73
2021/06/28 12:26:32;;;;;;;;;;;;;;;30.63;33.52;95956.78;5056919;28;19920;-73
2021/06/28 12:28:58;;;;;;;;;;;;;;;30.15;33.59;95945.75;5056588;28;19947;-74
2021/06/28 12:31:23;;;;;;;;;;;;;;;30.47;33.56;95951.56;5074625;28;20329;-73
2021/06/28 12:33:53;;;;;;;;;;;;;;;30.31;33.16;95941.69;5078809;28;20000;-74
2021/06/28 12:36:23;;;;;;;;;;;;;;;30.34;32.21;95940.16;5060663;28;19920;-73
2021/06/28 12:38:56;;;;;;;;;;;;;;;30.45;32.97;95946.47;5057560;28;20403;-73
2021/06/28 12:41:22;;;;;;;;;;;;;;;30.36;32.62;95934.38;5075855;28;19924;-73
2021/06/28 12:43:50;;;;;;;;;;;;;;;30.48;32.13;95948.47;5056868;28;20342;-74
2021/06/28 12:46:19;;;;;;;;;;;;;;;30.28;30.77;95942.41;5075589;28;19927;-73
2021/06/28 12:48:45;;;;;;;;;;;;;;;30.46;30.91;95950.78;5074925;28;19920;-73